createdAt,value
2022-09-05T00:00:20.767Z,100973.55
2022-09-05T00:02:06.095Z,100970.41
2022-09-05T00:03:21.749Z,100969.56
2022-09-05T00:04:35.173Z,100964.92
2022-09-05T00:06:02.778Z,100969.42
2022-09-05T00:07:36.032Z,100964.55
2022-09-05T00:08:22.947Z,100963.11
2022-09-05T00:09:39.228Z,100959.09
2022-09-05T00:11:43.062Z,100958.62
2022-09-05T00:12:15.698Z,100958.50
2022-09-05T00:13:37.374Z,100953.88
2022-09-05T00:15:16.730Z,100952.17
2022-09-05T00:16:34.182Z,100950.58
2022-09-05T00:18:32.471Z,100956.45
2022-09-05T00:24:26.872Z,100947.91
2022-09-05T00:24:31.033Z,100945.73
2022-09-05T00:26:33.535Z,100940.60
2022-09-05T00:27:58.937Z,100945.73
2022-09-05T00:29:21.781Z,100942.30
2022-09-05T00:31:51.505Z,100935.00
2022-09-05T00:32:02.529Z,100940.85
2022-09-05T00:33:17.511Z,100942.32
2022-09-05T00:34:36.195Z,100945.73
2022-09-05T00:35:49.587Z,100946.81
2022-09-05T00:36:55.422Z,100942.05
2022-09-05T00:38:02.492Z,100936.34
2022-09-05T00:39:15.871Z,100940.97
2022-09-05T00:40:36.748Z,100934.41
2022-09-05T00:41:42.946Z,100932.31
2022-09-05T00:42:50.024Z,100936.23
2022-09-05T00:44:00.323Z,100936.23
2022-09-05T00:45:14.612Z,100933.55
2022-09-05T00:46:32.988Z,100932.33
2022-09-05T00:47:41.980Z,100931.48
2022-09-05T00:48:54.911Z,100928.91
2022-09-05T00:51:28.534Z,100929.76
2022-09-05T00:52:43.780Z,100930.86
2022-09-05T00:54:03.690Z,100931.09
2022-09-05T00:55:27.907Z,100923.67
2022-09-05T00:56:45.289Z,100921.97
2022-09-05T00:58:20.601Z,100916.23
2022-09-05T00:59:59.133Z,100929.16
2022-09-05T01:01:12.080Z,100924.06
2022-09-05T01:02:37.902Z,100920.88
2022-09-05T01:03:58.209Z,100920.88
2022-09-05T01:05:19.611Z,100918.82
2022-09-05T01:06:35.621Z,100921.84
2022-09-05T01:09:29.054Z,100918.58
2022-09-05T01:11:08.052Z,100920.14
2022-09-05T01:12:16.120Z,100916.38
2022-09-05T01:13:53.873Z,100914.29
2022-09-05T01:15:20.616Z,100914.44
2022-09-05T01:17:04.187Z,100922.94
2022-09-05T01:18:17.402Z,100909.31
2022-09-05T01:19:47.687Z,100902.36
2022-09-05T01:20:59.308Z,100918.67
2022-09-05T01:22:10.467Z,100907.10
2022-09-05T01:23:50.321Z,100902.72
2022-09-05T01:25:15.096Z,100902.02
2022-09-05T01:29:15.426Z,100897.86
2022-09-05T01:29:55.610Z,100895.30
2022-09-05T01:31:14.636Z,100904.92
2022-09-05T01:32:42.096Z,100904.45
2022-09-05T01:33:59.018Z,100905.16
2022-09-05T01:35:42.225Z,100909.55
2022-09-05T01:37:00.229Z,100910.02
2022-09-05T01:38:12.966Z,100906.48
2022-09-05T01:40:14.413Z,100905.50
2022-09-05T01:41:18.434Z,100905.42
2022-09-05T01:42:12.322Z,100909.16
2022-09-05T01:43:31.810Z,100902.36
2022-09-05T01:45:03.360Z,100901.87
2022-09-05T01:46:33.835Z,100902.95
2022-09-05T01:47:48.383Z,100899.68
2022-09-05T01:49:09.462Z,100903.92
2022-09-05T01:50:51.959Z,100899.19
2022-09-05T01:52:33.769Z,100900.53
2022-09-05T01:55:34.866Z,100904.43
2022-09-05T01:56:43.740Z,100900.77
2022-09-05T01:58:03.334Z,100897.00
2022-09-05T01:59:15.116Z,100896.83
2022-09-05T02:00:32.750Z,100891.00
2022-09-05T02:01:52.192Z,100901.50
2022-09-05T02:02:59.580Z,100893.95
2022-09-05T02:04:12.121Z,100890.94
2022-09-05T02:05:48.691Z,100897.25
2022-09-05T02:06:45.425Z,100893.10
2022-09-05T02:08:12.058Z,100885.92
2022-09-05T02:09:31.126Z,100890.94
2022-09-05T02:10:57.294Z,100890.73
2022-09-05T02:12:04.005Z,100884.20
2022-09-05T02:13:32.618Z,100884.94
2022-09-05T02:14:45.549Z,100887.38
2022-09-05T02:15:59.904Z,100882.83
2022-09-05T02:17:23.423Z,100879.81
2022-09-05T02:18:43.867Z,100876.30
2022-09-05T02:19:51.068Z,100880.04
2022-09-05T02:21:01.466Z,100873.09
2022-09-05T02:22:14.478Z,100882.27
2022-09-05T02:23:27.363Z,100880.21
2022-09-05T02:24:39.968Z,100880.00
2022-09-05T02:26:19.997Z,100880.23
2022-09-05T02:28:04.246Z,100886.22
2022-09-05T02:28:49.596Z,100880.55
2022-09-05T02:30:09.446Z,100884.55
2022-09-05T02:31:23.848Z,100880.64
2022-09-05T02:33:03.062Z,100883.23
2022-09-05T02:34:25.206Z,100885.02
2022-09-05T02:35:37.327Z,100878.66
2022-09-05T02:36:45.016Z,100877.45
2022-09-05T02:40:00.935Z,100879.89
2022-09-05T02:45:02.366Z,100877.69
2022-09-05T02:45:06.887Z,100875.22
2022-09-05T02:45:14.210Z,100871.58
2022-09-05T02:45:14.649Z,100871.90
2022-09-05T02:45:26.889Z,100877.14
2022-09-05T02:48:27.228Z,100866.52
2022-09-05T02:52:29.242Z,100873.80
2022-09-05T02:57:25.826Z,100871.59
2022-09-05T02:57:27.121Z,100868.37
2022-09-05T02:57:39.221Z,100867.59
2022-09-05T02:57:40.618Z,100872.92
2022-09-05T02:58:07.199Z,100868.45
2022-09-05T03:03:50.975Z,100873.26
2022-09-05T03:05:04.651Z,100868.56
2022-09-05T03:06:15.901Z,100873.92
2022-09-05T03:07:45.531Z,100871.12
2022-09-05T03:09:16.702Z,100877.05
2022-09-05T03:10:53.706Z,100872.30
2022-09-05T03:12:28.907Z,100878.13
2022-09-05T03:13:28.427Z,100875.71
2022-09-05T03:14:41.790Z,100868.91
2022-09-05T03:16:24.373Z,100874.77
2022-09-05T03:17:56.676Z,100867.69
2022-09-05T03:19:16.337Z,100870.70
2022-09-05T03:20:51.999Z,100870.95
2022-09-05T03:22:17.540Z,100866.22
2022-09-05T03:23:30.766Z,100874.02
2022-09-05T03:25:06.364Z,100872.52
2022-09-05T03:26:28.950Z,100877.16
2022-09-05T03:28:11.558Z,100879.70
2022-09-05T03:29:36.648Z,100878.02
2022-09-05T03:31:20.561Z,100881.66
2022-09-05T03:32:43.676Z,100880.57
2022-09-05T03:34:15.108Z,100874.37
2022-09-05T03:35:56.802Z,100884.97
2022-09-05T03:37:07.304Z,100877.95
2022-09-05T03:38:31.562Z,100878.30
2022-09-05T03:40:16.082Z,100878.41
2022-09-05T03:41:40.160Z,100875.84
2022-09-05T03:43:01.909Z,100876.08
2022-09-05T03:44:26.303Z,100868.80
2022-09-05T03:45:46.168Z,100874.31
2022-09-05T03:47:09.242Z,100881.41
2022-09-05T03:48:28.730Z,100876.67
2022-09-05T03:52:21.343Z,100876.44
2022-09-05T03:57:05.990Z,100884.94
2022-09-05T03:57:07.182Z,100874.47
2022-09-05T03:57:17.660Z,100877.52
2022-09-05T03:57:19.160Z,100883.73
2022-09-05T03:57:38.649Z,100880.08
2022-09-05T03:58:55.483Z,100880.82
2022-09-05T04:00:11.262Z,100874.73
2022-09-05T04:03:30.787Z,100877.91
2022-09-05T04:05:31.038Z,100874.61
2022-09-05T04:08:10.952Z,100878.73
2022-09-05T04:08:17.043Z,100878.38
2022-09-05T04:08:18.539Z,100881.91
2022-09-05T04:08:19.632Z,100875.08
2022-09-05T04:08:59.926Z,100874.00
2022-09-05T04:10:28.052Z,100877.41
2022-09-05T04:11:47.761Z,100878.97
2022-09-05T04:12:55.213Z,100878.62
2022-09-05T04:14:01.372Z,100874.11
2022-09-05T04:15:24.699Z,100877.29
2022-09-05T04:16:33.111Z,100873.26
2022-09-05T04:17:43.528Z,100874.47
2022-09-05T04:19:05.990Z,100872.52
2022-09-05T04:20:38.445Z,100875.47
2022-09-05T04:23:13.533Z,100871.94
2022-09-05T04:24:36.803Z,100869.25
2022-09-05T04:26:12.163Z,100875.58
2022-09-05T04:27:34.585Z,100877.15
2022-09-05T04:29:00.823Z,100875.45
2022-09-05T04:30:39.694Z,100878.61
2022-09-05T04:32:18.709Z,100875.45
2022-09-05T04:33:36.975Z,100879.11
2022-09-05T04:34:56.646Z,100882.77
2022-09-05T04:36:31.698Z,100876.78
2022-09-05T04:38:55.938Z,100879.35
2022-09-05T04:40:23.080Z,100886.16
2022-09-05T04:41:39.966Z,100886.88
2022-09-05T04:42:37.566Z,100877.74
2022-09-05T04:43:50.938Z,100878.97
2022-09-05T04:45:07.250Z,100881.41
2022-09-05T04:46:19.502Z,100884.09
2022-09-05T04:47:41.802Z,100879.02
2022-09-05T04:49:08.907Z,100870.49
2022-09-05T04:50:24.147Z,100876.95
2022-09-05T04:51:31.799Z,100868.42
2022-09-05T04:53:05.454Z,100868.42
2022-09-05T04:54:36.947Z,100872.93
2022-09-05T04:55:51.059Z,100862.64
2022-09-05T04:56:57.643Z,100872.27
2022-09-05T04:58:07.614Z,100862.12
2022-09-05T05:01:31.140Z,100861.47
2022-09-05T05:06:03.643Z,100873.52
2022-09-05T05:06:11.234Z,100862.02
2022-09-05T05:06:15.300Z,100859.88
2022-09-05T05:06:42.316Z,100862.92
2022-09-05T05:07:48.546Z,100861.28
2022-09-05T05:09:30.985Z,100862.91
2022-09-05T05:13:00.731Z,100861.34
2022-09-05T05:17:56.010Z,100875.00
2022-09-05T05:18:07.793Z,100880.13
2022-09-05T05:18:09.767Z,100880.98
2022-09-05T05:18:10.551Z,100876.38
2022-09-05T05:18:16.392Z,100887.53
2022-09-05T05:18:59.976Z,100874.52
2022-09-05T05:21:20.904Z,100877.49
2022-09-05T05:22:25.994Z,100880.18
2022-09-05T05:23:39.468Z,100885.53
2022-09-05T05:24:52.934Z,100891.17
2022-09-05T05:25:59.720Z,100891.75
2022-09-05T05:27:24.725Z,100888.09
2022-09-05T05:28:44.458Z,100882.97
2022-09-05T05:30:08.478Z,100881.48
2022-09-05T05:31:29.469Z,100881.96
2022-09-05T05:32:46.070Z,100881.89
2022-09-05T05:33:50.246Z,100870.76
2022-09-05T05:35:00.476Z,100877.98
2022-09-05T05:36:08.544Z,100881.27
2022-09-05T05:37:32.485Z,100877.16
2022-09-05T05:38:47.259Z,100877.86
2022-09-05T05:41:33.893Z,100884.78
2022-09-05T05:42:41.123Z,100885.50
2022-09-05T05:43:46.632Z,100894.84
2022-09-05T05:44:55.012Z,100891.84
2022-09-05T05:46:01.261Z,100898.22
2022-09-05T05:48:27.243Z,100889.47
2022-09-05T05:49:41.192Z,100894.56
2022-09-05T05:50:54.200Z,100895.83
2022-09-05T05:52:08.459Z,100888.91
2022-09-05T05:53:43.188Z,100891.88
2022-09-05T05:55:37.622Z,100894.97
2022-09-05T05:56:22.852Z,100887.92
2022-09-05T05:58:03.934Z,100886.62
2022-09-05T05:59:24.750Z,100894.01
2022-09-05T06:00:51.559Z,100894.16
2022-09-05T06:02:16.598Z,100892.58
2022-09-05T06:05:18.341Z,100899.67
2022-09-05T06:06:43.455Z,100891.73
2022-09-05T06:10:53.897Z,100900.38
2022-09-05T06:14:50.873Z,100895.29
2022-09-05T06:14:51.011Z,100897.84
2022-09-05T06:14:57.481Z,100908.45
2022-09-05T06:15:05.412Z,100892.33
2022-09-05T06:15:27.724Z,100909.60
2022-09-05T06:17:12.175Z,100911.24
2022-09-05T06:18:45.881Z,100904.94
2022-09-05T06:22:07.671Z,100886.77
2022-09-05T06:24:28.289Z,100883.36
2022-09-05T06:25:56.274Z,100888.88
2022-09-05T06:27:22.981Z,100889.45
2022-09-05T06:30:21.360Z,100883.50
2022-09-05T06:31:43.098Z,100884.09
2022-09-05T06:33:12.828Z,100873.30
2022-09-05T06:36:10.605Z,100886.03
2022-09-05T06:37:34.400Z,100885.32
2022-09-05T06:39:00.387Z,100880.11
2022-09-05T06:40:20.509Z,100878.81
2022-09-05T06:41:52.915Z,100891.50
2022-09-05T06:43:19.108Z,100900.72
2022-09-05T06:44:54.513Z,100903.06
2022-09-05T06:47:22.856Z,100905.23
2022-09-05T06:47:36.732Z,100917.00
2022-09-05T06:49:30.033Z,100917.12
2022-09-05T06:50:21.731Z,100923.59
2022-09-05T06:51:31.687Z,100932.91
2022-09-05T06:52:59.158Z,100940.64
2022-09-05T06:54:27.630Z,100960.89
2022-09-05T06:55:44.122Z,100955.47
2022-09-05T06:58:51.188Z,100944.88
2022-09-05T07:00:22.504Z,100945.56
2022-09-05T07:01:53.851Z,100953.44
2022-09-05T07:02:58.921Z,100950.73
2022-09-05T07:04:33.185Z,100948.50
2022-09-05T07:05:39.849Z,100947.57
2022-09-05T07:07:06.460Z,100936.16
2022-09-05T07:08:35.825Z,100947.45
2022-09-05T07:11:11.410Z,100944.84
2022-09-05T07:12:16.276Z,100946.61
2022-09-05T07:13:44.647Z,100939.44
2022-09-05T07:15:11.458Z,100954.03
2022-09-05T07:16:26.528Z,100960.38
2022-09-05T07:18:09.710Z,100968.39
2022-09-05T07:19:03.342Z,100971.06
2022-09-05T07:20:30.705Z,100970.98
2022-09-05T07:21:46.953Z,100971.80
2022-09-05T07:22:55.192Z,100980.98
2022-09-05T07:24:11.146Z,100980.68
2022-09-05T07:25:21.071Z,100978.92
2022-09-05T07:26:49.711Z,100981.57
2022-09-05T07:27:41.986Z,100981.03
2022-09-05T07:28:46.359Z,100979.55
2022-09-05T07:30:00.955Z,100984.96
2022-09-05T07:31:04.290Z,100975.71
2022-09-05T07:32:10.697Z,100973.44
2022-09-05T07:33:21.015Z,100972.02
2022-09-05T07:34:35.418Z,100975.05
2022-09-05T07:35:42.714Z,100971.98
2022-09-05T07:36:48.516Z,100966.14
2022-09-05T07:38:11.035Z,100974.92
2022-09-05T07:39:28.869Z,100968.86
2022-09-05T07:40:30.886Z,100951.83
2022-09-05T07:41:40.911Z,100958.28
2022-09-05T07:43:10.096Z,100953.91
2022-09-05T07:44:18.831Z,100955.60
2022-09-05T07:45:29.106Z,100957.25
2022-09-05T07:46:36.284Z,100957.25
2022-09-05T07:47:43.591Z,100962.57
2022-09-05T07:48:50.925Z,100952.37
2022-09-05T07:52:23.517Z,100950.58
2022-09-05T07:55:59.239Z,100940.39
2022-09-05T07:56:47.671Z,100932.80
2022-09-05T07:56:55.562Z,100934.51
2022-09-05T07:57:02.365Z,100934.05
2022-09-05T07:57:08.981Z,100926.41
2022-09-05T07:57:30.361Z,100932.21
2022-09-05T07:58:15.328Z,100933.02
2022-09-05T07:59:24.740Z,100934.34
2022-09-05T08:00:32.061Z,100937.83
2022-09-05T08:01:39.847Z,100939.38
2022-09-05T08:02:50.235Z,100938.11
2022-09-05T08:04:00.363Z,100935.22
2022-09-05T08:05:05.737Z,100927.56
2022-09-05T08:06:15.648Z,100930.57
2022-09-05T08:07:46.737Z,100931.08
2022-09-05T08:09:18.634Z,100948.16
2022-09-05T08:10:08.064Z,100974.09
2022-09-05T08:11:24.204Z,100958.46
2022-09-05T08:12:28.341Z,100978.75
2022-09-05T08:13:46.586Z,100978.22
2022-09-05T08:14:57.214Z,100977.69
2022-09-05T08:36:00.787Z,100952.52
2022-09-05T08:37:03.097Z,100934.97
2022-09-05T08:38:09.006Z,100926.36
2022-09-05T08:39:22.620Z,100922.23
2022-09-05T08:40:35.980Z,100922.23
2022-09-05T08:42:05.970Z,100918.58
2022-09-05T08:46:32.170Z,100919.63
2022-09-05T08:46:40.509Z,100913.64
2022-09-05T08:46:47.281Z,100916.96
2022-09-05T08:46:55.923Z,100892.67
2022-09-05T08:48:10.368Z,100890.72
2022-09-05T08:51:01.172Z,100899.39
2022-09-05T08:52:11.642Z,100900.67
2022-09-05T08:53:52.245Z,100894.25
2022-09-05T08:55:07.121Z,100896.99
2022-09-05T08:56:23.081Z,100901.38
2022-09-05T08:58:04.372Z,100889.98
2022-09-05T08:59:27.635Z,100896.56
2022-09-05T09:00:24.448Z,100896.25
2022-09-05T09:02:13.780Z,100898.48
2022-09-05T09:03:05.008Z,100888.26
2022-09-05T09:04:41.690Z,100882.02
2022-09-05T09:06:13.542Z,100892.84
2022-09-05T09:07:47.224Z,100893.98
2022-09-05T09:08:56.459Z,100896.67
2022-09-05T09:10:25.767Z,100898.86
2022-09-05T09:11:42.135Z,100895.28
2022-09-05T09:12:55.327Z,100902.05
2022-09-05T09:14:31.116Z,100903.20
2022-09-05T09:16:16.289Z,100907.47
2022-09-05T09:17:43.813Z,100910.70
2022-09-05T09:18:54.122Z,100917.84
2022-09-05T09:20:10.235Z,100911.48
2022-09-05T09:21:35.899Z,100915.84
2022-09-05T09:22:50.491Z,100908.59
2022-09-05T09:24:00.630Z,100912.18
2022-09-05T09:25:15.392Z,100908.90
2022-09-05T09:26:25.444Z,100913.09
2022-09-05T09:28:40.774Z,100906.83
2022-09-05T09:29:06.940Z,100905.55
2022-09-05T09:30:14.392Z,100899.20
2022-09-05T09:31:39.333Z,100901.84
2022-09-05T09:32:49.011Z,100900.05
2022-09-05T09:34:23.766Z,100886.47
2022-09-05T09:35:48.134Z,100893.64
2022-09-05T09:37:31.965Z,100888.70
2022-09-05T09:38:49.396Z,100895.57
2022-09-05T09:40:23.271Z,100894.70
2022-09-05T09:41:52.897Z,100890.64
2022-09-05T09:43:10.417Z,100893.66
2022-09-05T09:44:53.435Z,100902.82
2022-09-05T09:46:10.922Z,100895.97
2022-09-05T09:47:17.855Z,100888.26
2022-09-05T09:48:36.637Z,100899.14
2022-09-05T09:49:54.562Z,100893.27
2022-09-05T09:51:19.056Z,100895.79
2022-09-05T09:52:50.316Z,100897.14
2022-09-05T09:54:03.937Z,100887.98
2022-09-05T10:21:44.213Z,100864.58
2022-09-05T10:23:15.179Z,100868.51
2022-09-05T10:24:52.518Z,100873.05
2022-09-05T10:26:27.589Z,100871.67
2022-09-05T10:27:53.709Z,100876.11
2022-09-05T10:29:35.237Z,100874.22
2022-09-05T10:30:41.869Z,100877.28
2022-09-05T10:33:16.956Z,100874.05
2022-09-05T10:35:09.320Z,100874.23
2022-09-05T10:35:16.837Z,100867.65
2022-09-05T10:35:44.508Z,100866.20
2022-09-05T10:37:05.153Z,100867.69
2022-09-05T10:38:21.712Z,100871.53
2022-09-05T10:39:31.689Z,100871.35
2022-09-05T10:41:11.043Z,100878.30
2022-09-05T10:41:51.038Z,100879.12
2022-09-05T10:43:03.228Z,100876.92
2022-09-05T10:44:12.427Z,100882.31
2022-09-05T10:46:51.348Z,100898.66
2022-09-05T10:48:14.261Z,100897.35
2022-09-05T10:50:37.039Z,100885.90
2022-09-05T10:51:53.188Z,100891.36
2022-09-05T10:53:38.906Z,100881.42
2022-09-05T10:54:38.599Z,100890.19
2022-09-05T10:56:01.578Z,100893.38
2022-09-05T10:57:20.911Z,100902.87
2022-09-05T11:02:16.445Z,100886.33
2022-09-05T11:02:19.266Z,100902.59
2022-09-05T11:02:27.375Z,100897.95
2022-09-05T11:02:49.095Z,100911.39
2022-09-05T11:04:11.340Z,100912.27
2022-09-05T11:05:27.871Z,100912.00
2022-09-05T11:06:38.940Z,100926.27
2022-09-05T11:08:07.262Z,100915.70
2022-09-05T11:09:21.611Z,100891.75
2022-09-05T11:10:40.469Z,100885.06
2022-09-05T11:11:50.759Z,100869.62
2022-09-05T11:13:06.623Z,100865.66
2022-09-05T11:14:32.182Z,100861.70
2022-09-05T11:16:04.355Z,100853.70
2022-09-05T11:17:22.304Z,100859.41
2022-09-05T11:18:56.458Z,100845.11
2022-09-05T11:19:55.856Z,100843.36
2022-09-05T11:22:29.399Z,100845.03
2022-09-05T11:23:52.966Z,100838.16
2022-09-05T11:25:02.335Z,100837.58
2022-09-05T11:26:35.115Z,100833.17
2022-09-05T11:27:44.696Z,100833.25
2022-09-05T11:28:59.851Z,100825.50
2022-09-05T11:30:09.051Z,100835.41
2022-09-05T11:31:21.669Z,100830.59
2022-09-05T11:37:52.256Z,100835.91
2022-09-05T11:39:45.768Z,100836.63
2022-09-05T11:39:48.206Z,100828.06
2022-09-05T11:39:56.731Z,100836.66
2022-09-05T11:40:26.341Z,100837.16
2022-09-05T11:41:23.843Z,100830.75
2022-09-05T11:42:52.023Z,100827.62
2022-09-05T11:44:25.130Z,100837.57
2022-09-05T11:45:42.766Z,100836.16
2022-09-05T11:47:28.052Z,100823.26
2022-09-05T11:48:55.447Z,100819.63
2022-09-05T11:50:19.621Z,100820.67
2022-09-05T11:51:49.004Z,100823.41
2022-09-05T11:53:05.993Z,100821.20
2022-09-05T11:54:13.681Z,100821.47
2022-09-05T11:55:56.035Z,100833.05
2022-09-05T11:57:31.894Z,100824.45
2022-09-05T11:58:44.858Z,100822.21
2022-09-05T12:00:31.301Z,100822.91
2022-09-05T12:01:41.037Z,100818.70
2022-09-05T12:02:45.005Z,100816.37
2022-09-05T12:04:13.789Z,100822.85
2022-09-05T12:05:48.966Z,100810.42
2022-09-05T12:07:26.259Z,100821.95
2022-09-05T12:08:32.928Z,100819.20
2022-09-05T12:09:53.450Z,100815.86
2022-09-05T12:11:11.005Z,100824.97
2022-09-05T12:12:39.018Z,100826.19
2022-09-05T12:13:39.999Z,100827.73
2022-09-05T12:15:16.607Z,100828.58
2022-09-05T12:16:41.951Z,100831.11
2022-09-05T12:17:48.378Z,100830.05
2022-09-05T12:19:18.982Z,100832.17
2022-09-05T12:20:22.133Z,100832.71
2022-09-05T12:21:35.637Z,100835.41
2022-09-05T12:22:57.466Z,100843.42
2022-09-05T12:25:24.198Z,100836.61
2022-09-05T12:27:41.872Z,100834.84
2022-09-05T12:27:42.551Z,100836.15
2022-09-05T12:27:58.572Z,100840.86
2022-09-05T12:29:32.607Z,100838.11
2022-09-05T12:30:28.791Z,100838.53
2022-09-05T12:32:37.720Z,100841.95
2022-09-05T12:36:01.834Z,100837.42
2022-09-05T12:36:04.240Z,100841.98
2022-09-05T12:36:09.888Z,100831.59
2022-09-05T12:40:28.688Z,100841.86
2022-09-05T12:40:56.293Z,100836.92
2022-09-05T12:40:56.296Z,100834.61
2022-09-05T12:41:36.785Z,100834.84
2022-09-05T12:42:11.335Z,100830.67
2022-09-05T12:44:37.493Z,100838.22
2022-09-05T12:44:39.478Z,100827.67
2022-09-05T12:45:58.536Z,100830.70
2022-09-05T12:47:18.835Z,100828.15
2022-09-05T12:48:16.079Z,100831.13
2022-09-05T12:49:47.275Z,100832.23
2022-09-05T12:50:58.984Z,100833.13
2022-09-05T12:52:09.217Z,100839.53
2022-09-05T12:53:21.843Z,100834.84
2022-09-05T12:54:33.346Z,100826.47
2022-09-05T12:55:46.988Z,100834.47
2022-09-05T13:02:02.811Z,100833.80
2022-09-05T13:02:59.071Z,100823.52
2022-09-05T13:03:01.530Z,100825.31
2022-09-05T13:03:07.415Z,100824.79
2022-09-05T13:03:14.118Z,100828.89
2022-09-05T13:03:30.058Z,100827.12
2022-09-05T13:04:47.339Z,100836.88
2022-09-05T13:05:52.989Z,100829.98
2022-09-05T13:07:10.481Z,100833.84
2022-09-05T13:08:22.735Z,100835.06
2022-09-05T13:10:39.443Z,100831.46
2022-09-05T13:14:28.991Z,100831.26
2022-09-05T13:14:50.100Z,100841.72
2022-09-05T13:14:53.363Z,100838.24
2022-09-05T13:14:59.360Z,100842.09
2022-09-05T13:15:27.953Z,100835.56
2022-09-05T13:16:35.083Z,100836.17
2022-09-05T13:17:44.432Z,100843.20
2022-09-05T13:18:50.928Z,100835.56
2022-09-05T13:19:56.292Z,100832.13
2022-09-05T13:21:14.023Z,100839.55
2022-09-05T13:22:21.660Z,100833.87
2022-09-05T13:23:40.974Z,100838.70
2022-09-05T13:24:50.027Z,100833.70
2022-09-05T13:26:02.407Z,100830.63
2022-09-05T13:27:18.288Z,100844.95
2022-09-05T13:28:25.148Z,100836.86
2022-09-05T13:29:38.554Z,100834.41
2022-09-05T13:37:54.634Z,100833.47
2022-09-05T13:37:59.938Z,100828.50
2022-09-05T13:38:02.724Z,100832.25
2022-09-05T13:38:15.038Z,100829.66
2022-09-05T13:38:21.304Z,100832.02
2022-09-05T13:38:28.838Z,100824.22
2022-09-05T13:38:47.507Z,100826.30
2022-09-05T13:39:29.767Z,100831.02
2022-09-05T13:40:49.707Z,100833.30
2022-09-05T13:41:57.437Z,100830.63
2022-09-05T13:43:14.887Z,100835.56
2022-09-05T13:44:26.354Z,100831.63
2022-09-05T13:45:30.446Z,100832.80
2022-09-05T13:46:39.459Z,100836.45
2022-09-05T13:48:01.312Z,100831.14
2022-09-05T13:49:26.507Z,100828.16
2022-09-05T13:50:42.075Z,100825.73
2022-09-05T13:51:50.583Z,100835.02
2022-09-05T13:52:59.931Z,100834.13
2022-09-05T13:54:16.677Z,100838.30
2022-09-05T13:56:39.034Z,100831.86
2022-09-05T13:57:54.693Z,100830.59
2022-09-05T13:59:11.137Z,100838.17
2022-09-05T14:00:28.737Z,100830.31
2022-09-05T14:01:36.424Z,100835.91
2022-09-05T14:05:06.006Z,100838.02
2022-09-05T14:06:47.057Z,100839.88
2022-09-05T14:07:46.337Z,100842.11
2022-09-05T14:10:34.574Z,100849.50
2022-09-05T14:12:15.007Z,100849.95
2022-09-05T14:13:36.626Z,100844.56
2022-09-05T14:15:59.056Z,100855.84
2022-09-05T14:18:44.265Z,100846.86
2022-09-05T14:20:10.917Z,100858.23
2022-09-05T14:21:16.893Z,100856.00
2022-09-05T14:22:44.178Z,100860.30
2022-09-05T14:24:03.167Z,100855.20
2022-09-05T14:25:27.041Z,100861.23
2022-09-05T14:26:43.952Z,100870.34
2022-09-05T14:27:51.288Z,100864.07
2022-09-05T14:29:19.695Z,100863.24
2022-09-05T14:33:32.507Z,100863.17
2022-09-05T14:37:34.844Z,100865.59
2022-09-05T14:37:43.765Z,100870.84
2022-09-05T14:37:48.705Z,100876.14
2022-09-05T14:37:53.547Z,100869.82
2022-09-05T14:38:01.085Z,100874.15
2022-09-05T14:38:57.862Z,100865.80
2022-09-05T14:40:33.036Z,100864.31
2022-09-05T14:41:43.218Z,100866.77
2022-09-05T14:43:07.389Z,100863.63
2022-09-05T14:44:41.676Z,100874.95
2022-09-05T14:46:04.236Z,100860.05
2022-09-05T14:47:38.603Z,100853.50
2022-09-05T14:49:00.850Z,100870.40
2022-09-05T14:50:17.955Z,100871.25
2022-09-05T14:51:26.530Z,100867.50
2022-09-05T14:52:35.498Z,100869.14
2022-09-05T14:54:06.190Z,100861.89
2022-09-05T14:57:19.035Z,100871.05
2022-09-05T15:02:47.896Z,100880.05
2022-09-05T15:02:50.437Z,100877.23
2022-09-05T15:02:53.944Z,100881.95
2022-09-05T15:02:56.876Z,100884.08
2022-09-05T15:05:03.137Z,100884.43
2022-09-05T15:06:28.107Z,100881.81
2022-09-05T15:07:37.789Z,100876.91
2022-09-05T15:11:15.224Z,100879.64
2022-09-05T15:12:15.016Z,100885.52
2022-09-05T15:12:16.832Z,100889.62
2022-09-05T15:12:31.343Z,100885.14
2022-09-05T15:13:25.780Z,100883.09
2022-09-05T15:14:33.258Z,100889.72
2022-09-05T15:16:02.901Z,100877.84
2022-09-05T15:17:10.549Z,100878.25
2022-09-05T15:20:06.375Z,100875.02
2022-09-05T15:21:34.534Z,100873.19
2022-09-05T15:22:43.242Z,100874.31
2022-09-05T15:25:25.497Z,100872.05
2022-09-05T15:26:33.006Z,100878.15
2022-09-05T15:27:37.057Z,100871.63
2022-09-05T15:28:46.586Z,100875.72
2022-09-05T15:29:55.247Z,100873.20
2022-09-05T15:31:06.149Z,100879.69
2022-09-05T15:32:23.620Z,100873.88
2022-09-05T15:33:30.636Z,100879.12
2022-09-05T15:34:38.507Z,100879.12
2022-09-05T15:35:47.409Z,100875.59
2022-09-05T15:37:09.282Z,100871.91
2022-09-05T15:38:06.261Z,100879.41
2022-09-05T15:39:29.168Z,100882.13
2022-09-05T15:40:33.161Z,100878.72
2022-09-05T15:41:43.382Z,100878.69
2022-09-05T15:42:59.362Z,100879.81
2022-09-05T15:44:09.687Z,100885.36
2022-09-05T15:45:15.516Z,100873.88
2022-09-05T15:46:51.012Z,100879.69
2022-09-05T15:48:16.813Z,100874.88
2022-09-05T15:49:43.788Z,100876.14
2022-09-05T15:50:50.645Z,100885.64
2022-09-05T15:53:15.647Z,100880.11
2022-09-05T15:54:38.335Z,100881.38
2022-09-05T15:55:58.251Z,100876.92
2022-09-05T15:57:02.586Z,100881.76
2022-09-05T15:58:11.470Z,100885.20
2022-09-05T15:59:21.810Z,100880.53
2022-09-05T16:00:37.205Z,100884.92
2022-09-05T16:01:58.412Z,100883.36
2022-09-05T16:03:05.320Z,100877.84
2022-09-05T16:06:25.293Z,100886.19
2022-09-05T16:10:36.681Z,100873.86
2022-09-05T16:10:41.283Z,100887.14
2022-09-05T16:10:45.158Z,100883.09
2022-09-05T16:10:50.569Z,100881.93
2022-09-05T16:13:08.337Z,100889.76
2022-09-05T16:14:39.617Z,100884.08
2022-09-05T16:20:31.631Z,100883.59
2022-09-05T16:23:12.738Z,100895.88
2022-09-05T16:23:13.513Z,100894.18
2022-09-05T16:23:23.592Z,100901.84
2022-09-05T16:23:26.985Z,100890.09
2022-09-05T16:24:58.073Z,100900.94
2022-09-05T16:25:52.444Z,100895.28
2022-09-05T16:27:02.678Z,100902.35
2022-09-05T16:28:17.268Z,100909.17
2022-09-05T16:29:26.640Z,100901.50
2022-09-05T16:30:33.766Z,100901.50
2022-09-05T16:31:41.832Z,100901.18
2022-09-05T16:32:51.457Z,100910.36
2022-09-05T16:33:55.763Z,100917.68
2022-09-05T16:35:10.406Z,100911.87
2022-09-05T16:36:18.194Z,100912.01
2022-09-05T16:37:42.546Z,100910.92
2022-09-05T16:38:53.042Z,100909.26
2022-09-05T16:40:03.094Z,100906.20
2022-09-05T16:42:46.615Z,100907.84
2022-09-05T16:43:57.702Z,100908.50
2022-09-05T16:45:06.183Z,100899.98
2022-09-05T16:46:33.222Z,100905.94
2022-09-05T16:47:40.632Z,100909.35
2022-09-05T16:49:05.769Z,100908.89
2022-09-05T16:50:34.129Z,100919.52